Time;durP1;ratioP1;P1;durP2;ratioP2;P2;SDS_P1;SDS_P2;PMS_P1;PMS_P2;Temp;Humidity;BMP_temperature;BMP_pressure;BME280_temperature;BME280_humidity;BME280_pressure;Samples;Min_cycle;Max_cycle;Signal;HPM_P1;HPM_P2
2024/02/12 00:00:48;;;;;;;3.88;2.13;;;;;;;;;;5034103;28;20556;-67
2024/02/12 00:03:26;;;;;;;4.60;1.90;;;;;;;;;;5028310;28;20205;-67
2024/02/12 00:05:55;;;;;;;3.80;2.00;;;;;;;;;;5028580;28;20256;-67
2024/02/12 00:08:23;;;;;;;4.10;2.20;;;;;;;;;;5028425;28;20209;-67
2024/02/12 00:10:51;;;;;;;1.65;1.55;;;;;;;;;;5027435;28;20628;-68
2024/02/12 00:13:21;;;;;;;1.55;1.45;;;;;;;;;;5036003;28;20207;-67
2024/02/12 00:15:51;;;;;;;3.83;1.63;;;;;;;;;;5048529;28;20220;-67
2024/02/12 00:18:20;;;;;;;2.28;2.10;;;;;;;;;;5043383;28;20201;-67
2024/02/12 00:20:48;;;;;;;2.45;2.25;;;;;;;;;;5029209;28;20582;-67
2024/02/12 00:23:16;;;;;;;2.42;2.22;;;;;;;;;;5043501;28;20201;-66
2024/02/12 00:25:47;;;;;;;4.15;1.98;;;;;;;;;;5048883;28;20193;-66
2024/02/12 00:28:15;;;;;;;4.82;1.65;;;;;;;;;;5048553;28;20443;-66
2024/02/12 00:30:43;;;;;;;2.95;2.30;;;;;;;;;;5049111;28;20212;-66
2024/02/12 00:33:13;;;;;;;2.33;1.90;;;;;;;;;;5047510;28;20208;-67
2024/02/12 00:35:41;;;;;;;3.30;2.10;;;;;;;;;;5044114;28;20205;-66
2024/02/12 00:38:11;;;;;;;4.75;2.30;;;;;;;;;;5048344;28;20200;-66
2024/02/12 00:40:40;;;;;;;4.50;2.40;;;;;;;;;;5046537;28;20204;-67
2024/02/12 00:43:08;;;;;;;5.43;2.00;;;;;;;;;;5035913;28;20207;-67
2024/02/12 00:45:38;;;;;;;4.95;2.30;;;;;;;;;;5042335;28;20193;-66
2024/02/12 00:48:07;;;;;;;2.90;1.70;;;;;;;;;;5028985;28;20209;-67
2024/02/12 00:50:36;;;;;;;2.40;2.20;;;;;;;;;;5043339;28;20761;-66
2024/02/12 00:53:04;;;;;;;3.88;2.10;;;;;;;;;;5037052;28;20197;-66
2024/02/12 00:55:33;;;;;;;4.28;2.10;;;;;;;;;;5028999;28;20212;-66
2024/02/12 00:58:06;;;;;;;8.88;2.40;;;;;;;;;;5029095;28;20223;-67
2024/02/12 01:00:35;;;;;;;4.53;2.13;;;;;;;;;;5028206;28;20262;-66
2024/02/12 01:03:15;;;;;;;4.47;2.05;;;;;;;;;;5064472;28;20196;-66
2024/02/12 01:05:45;;;;;;;5.80;1.98;;;;;;;;;;5049002;28;20651;-66
2024/02/12 01:08:13;;;;;;;2.30;2.10;;;;;;;;;;5046558;28;20213;-67
2024/02/12 01:10:41;;;;;;;2.75;2.13;;;;;;;;;;5044987;28;20254;-66
2024/02/12 01:13:10;;;;;;;1.95;1.85;;;;;;;;;;5048073;28;20207;-66
2024/02/12 01:15:40;;;;;;;5.38;1.73;;;;;;;;;;5047772;28;20719;-66
2024/02/12 01:18:29;;;;;;;2.33;2.13;;;;;;;;;;5048531;28;20548;-68
2024/02/12 01:20:59;;;;;;;2.40;2.20;;;;;;;;;;5047920;28;20258;-66
2024/02/12 01:23:30;;;;;;;3.50;2.28;;;;;;;;;;5049028;28;20185;-66
2024/02/12 01:25:59;;;;;;;2.42;2.22;;;;;;;;;;5043065;28;20192;-68
2024/02/12 01:28:27;;;;;;;3.80;1.80;;;;;;;;;;5043894;28;20219;-66
2024/02/12 01:30:55;;;;;;;4.47;2.42;;;;;;;;;;5048716;28;20258;-66
2024/02/12 01:33:25;;;;;;;2.42;2.20;;;;;;;;;;5047090;28;20205;-66
2024/02/12 01:35:53;;;;;;;4.40;2.25;;;;;;;;;;5047465;28;20366;-68
2024/02/12 01:38:23;;;;;;;2.63;1.80;;;;;;;;;;5048056;28;20308;-66
2024/02/12 01:40:51;;;;;;;2.30;2.10;;;;;;;;;;5040116;28;20263;-66
2024/02/12 01:43:30;;;;;;;2.67;2.33;;;;;;;;;;5028237;28;20208;-66
2024/02/12 01:46:00;;;;;;;5.65;1.85;;;;;;;;;;5044601;28;20195;-66
2024/02/12 01:48:29;;;;;;;4.05;2.30;;;;;;;;;;5047031;28;20201;-67
2024/02/12 01:51:00;;;;;;;2.60;2.40;;;;;;;;;;5048070;28;20674;-64
2024/02/12 01:53:30;;;;;;;2.90;2.03;;;;;;;;;;5048063;28;20197;-66
2024/02/12 01:55:58;;;;;;;4.25;2.65;;;;;;;;;;5052121;28;20195;-66
2024/02/12 01:58:32;;;;;;;2.28;1.70;;;;;;;;;;5050557;28;20213;-64
2024/02/12 02:01:00;;;;;;;1.77;1.65;;;;;;;;;;5051699;28;20213;-64
2024/02/12 02:03:30;;;;;;;3.17;1.80;;;;;;;;;;5045739;28;20562;-67
2024/02/12 02:05:58;;;;;;;2.00;1.75;;;;;;;;;;5051287;28;20200;-65
2024/02/12 02:08:37;;;;;;;2.83;1.73;;;;;;;;;;5052355;28;20200;-64
2024/02/12 02:11:06;;;;;;;1.55;1.45;;;;;;;;;;5032226;28;20692;-64
2024/02/12 02:13:35;;;;;;;3.35;1.60;;;;;;;;;;5032951;28;20205;-64
2024/02/12 02:16:23;;;;;;;2.10;1.92;;;;;;;;;;5031819;28;20209;-65
2024/02/12 02:18:52;;;;;;;1.80;1.70;;;;;;;;;;5034202;28;20549;-64
2024/02/12 02:21:28;;;;;;;1.42;1.33;;;;;;;;;;5051707;28;20715;-64
2024/02/12 02:23:59;;;;;;;7.13;1.73;;;;;;;;;;5051983;28;20204;-65
2024/02/12 02:26:27;;;;;;;6.95;3.05;;;;;;;;;;5051226;28;20195;-64
2024/02/12 02:28:58;;;;;;;2.28;1.50;;;;;;;;;;5051080;28;20205;-64
2024/02/12 02:31:26;;;;;;;1.65;1.55;;;;;;;;;;5052190;28;20195;-65
2024/02/12 02:33:54;;;;;;;7.18;2.22;;;;;;;;;;5051587;28;20547;-64
2024/02/12 02:36:22;;;;;;;2.28;1.40;;;;;;;;;;5046941;28;20222;-65
2024/02/12 02:38:51;;;;;;;4.20;1.60;;;;;;;;;;5049910;28;20207;-65
2024/02/12 02:41:21;;;;;;;2.42;2.17;;;;;;;;;;5050712;28;20201;-64
2024/02/12 02:43:49;;;;;;;2.58;2.38;;;;;;;;;;5044503;28;20194;-65
2024/02/12 02:46:26;;;;;;;5.20;1.90;;;;;;;;;;5046124;28;20549;-64
2024/02/12 02:48:55;;;;;;;2.20;2.00;;;;;;;;;;5033638;28;20325;-64
2024/02/12 02:51:27;;;;;;;1.88;1.70;;;;;;;;;;5042996;28;20235;-66
2024/02/12 02:53:55;;;;;;;4.55;2.03;;;;;;;;;;5036522;28;20197;-64
2024/02/12 02:56:25;;;;;;;3.10;1.90;;;;;;;;;;5051750;28;20228;-64
2024/02/12 02:58:54;;;;;;;8.43;2.63;;;;;;;;;;5050351;28;20227;-64
2024/02/12 03:01:22;;;;;;;1.75;1.65;;;;;;;;;;5049578;28;20207;-65
2024/02/12 03:03:52;;;;;;;3.13;2.08;;;;;;;;;;5035305;28;20201;-64
2024/02/12 03:06:20;;;;;;;13.25;11.95;;;;;;;;;;5049740;28;20208;-64
2024/02/12 03:08:49;;;;;;;7.90;7.20;;;;;;;;;;5040177;28;20666;-65
2024/02/12 03:11:19;;;;;;;4.45;4.05;;;;;;;;;;5031510;28;20209;-64
2024/02/12 03:13:50;;;;;;;8.35;6.75;;;;;;;;;;5034249;28;20199;-63
2024/02/12 03:16:18;;;;;;;4.05;3.47;;;;;;;;;;5047564;28;20193;-66
2024/02/12 03:18:47;;;;;;;5.70;2.17;;;;;;;;;;5040484;28;20243;-64
2024/02/12 03:21:19;;;;;;;2.05;1.83;;;;;;;;;;5031899;28;20233;-67
2024/02/12 03:23:48;;;;;;;4.53;2.35;;;;;;;;;;5030545;28;20208;-64
2024/02/12 03:26:16;;;;;;;2.28;2.00;;;;;;;;;;5043733;28;20193;-64
2024/02/12 03:28:45;;;;;;;2.65;1.80;;;;;;;;;;5038006;28;20204;-64
2024/02/12 03:31:14;;;;;;;1.95;1.83;;;;;;;;;;5041474;28;20201;-64
2024/02/12 03:33:43;;;;;;;2.20;2.00;;;;;;;;;;5030082;28;20205;-65
2024/02/12 03:36:11;;;;;;;5.03;2.35;;;;;;;;;;5042537;28;20209;-66
2024/02/12 03:38:39;;;;;;;76.30;37.83;;;;;;;;;;5030236;28;20239;-64
2024/02/12 03:41:08;;;;;;;4.53;3.85;;;;;;;;;;5042029;28;20196;-64
2024/02/12 03:43:37;;;;;;;13.43;8.30;;;;;;;;;;5041206;28;20193;-64
2024/02/12 03:46:07;;;;;;;2.60;2.10;;;;;;;;;;5043990;28;20242;-64
2024/02/12 03:59:54;;;;;;;3.33;2.72;;;;;;;;;;5037143;28;20708;-64
2024/02/12 04:02:23;;;;;;;5.90;3.13;;;;;;;;;;5046107;28;20617;-65
2024/02/12 04:04:52;;;;;;;4.72;2.70;;;;;;;;;;5048909;28;20203;-64
2024/02/12 04:07:21;;;;;;;4.38;3.22;;;;;;;;;;5047257;28;20656;-65
2024/02/12 04:09:50;;;;;;;3.13;2.40;;;;;;;;;;5033505;28;20205;-66
2024/02/12 04:12:19;;;;;;;3.63;2.63;;;;;;;;;;5044967;28;20211;-64
2024/02/12 04:14:47;;;;;;;5.20;3.10;;;;;;;;;;5045983;28;20205;-65
2024/02/12 04:17:15;;;;;;;3.15;2.85;;;;;;;;;;5036588;28;20209;-64
2024/02/12 04:19:44;;;;;;;3.17;2.97;;;;;;;;;;5029878;28;20201;-64
2024/02/12 04:22:14;;;;;;;8.70;3.50;;;;;;;;;;5030286;28;20240;-65
2024/02/12 04:24:43;;;;;;;4.50;3.45;;;;;;;;;;5048624;28;20196;-64
2024/02/12 04:27:11;;;;;;;5.53;4.18;;;;;;;;;;5039506;28;20200;-64
2024/02/12 04:29:41;;;;;;;5.57;5.13;;;;;;;;;;5041655;28;20196;-64
2024/02/12 04:32:11;;;;;;;4.47;3.80;;;;;;;;;;5069863;28;20199;-65
2024/02/12 04:34:40;;;;;;;6.82;6.20;;;;;;;;;;5069342;28;20202;-65
2024/02/12 04:37:08;;;;;;;3.65;3.42;;;;;;;;;;5068374;28;20206;-64
2024/02/12 04:39:38;;;;;;;7.35;3.50;;;;;;;;;;5069375;28;20215;-64
2024/02/12 04:42:06;;;;;;;3.63;3.33;;;;;;;;;;5069441;28;20211;-65
2024/02/12 04:44:35;;;;;;;3.88;3.58;;;;;;;;;;5041821;28;20205;-64
2024/02/12 04:47:04;;;;;;;4.55;3.40;;;;;;;;;;5044997;28;20199;-64
2024/02/12 04:49:32;;;;;;;3.65;2.92;;;;;;;;;;5035630;28;20208;-64
2024/02/12 04:52:01;;;;;;;3.95;3.65;;;;;;;;;;5038920;28;20682;-64
2024/02/12 04:54:29;;;;;;;3.05;2.85;;;;;;;;;;5034194;28;20553;-65
2024/02/12 04:56:59;;;;;;;2.67;2.50;;;;;;;;;;5041588;28;20682;-64
2024/02/12 04:59:27;;;;;;;3.22;3.03;;;;;;;;;;5036403;28;20213;-64
2024/02/12 05:01:56;;;;;;;3.30;3.00;;;;;;;;;;5031195;28;20205;-65
2024/02/12 05:04:24;;;;;;;6.82;3.13;;;;;;;;;;5027812;28;20197;-64
2024/02/12 05:06:52;;;;;;;8.95;3.63;;;;;;;;;;5037814;28;20205;-64
2024/02/12 05:09:23;;;;;;;3.35;3.03;;;;;;;;;;5047665;28;20193;-65
2024/02/12 05:11:51;;;;;;;2.60;2.40;;;;;;;;;;5036358;28;20244;-65
2024/02/12 05:14:26;;;;;;;3.47;2.90;;;;;;;;;;5032519;28;20197;-64
2024/02/12 05:16:59;;;;;;;2.72;2.53;;;;;;;;;;5032629;28;20588;-65
2024/02/12 05:24:59;;;;;;;3.65;3.35;;;;;;;;;;5040511;28;20254;-64
2024/02/12 05:27:28;;;;;;;8.50;3.70;;;;;;;;;;5049971;28;20201;-64
2024/02/12 05:29:57;;;;;;;5.78;3.00;;;;;;;;;;5054162;28;20197;-64
2024/02/12 05:32:27;;;;;;;3.45;2.80;;;;;;;;;;5053230;28;20686;-65
2024/02/12 05:34:56;;;;;;;3.30;3.03;;;;;;;;;;5036410;28;20220;-64
2024/02/12 05:37:24;;;;;;;2.88;2.45;;;;;;;;;;5034488;28;20213;-64
2024/02/12 05:39:53;;;;;;;4.30;3.45;;;;;;;;;;5051546;28;20217;-66
2024/02/12 05:42:21;;;;;;;5.63;3.20;;;;;;;;;;5050363;28;20281;-65
2024/02/12 05:44:49;;;;;;;3.83;2.90;;;;;;;;;;5052871;28;20201;-64
2024/02/12 05:47:20;;;;;;;2.85;2.65;;;;;;;;;;5053273;28;20204;-64
2024/02/12 05:49:49;;;;;;;2.95;2.35;;;;;;;;;;5053367;28;20196;-65
2024/02/12 05:52:17;;;;;;;3.90;2.53;;;;;;;;;;5051732;28;20201;-64
2024/02/12 05:54:46;;;;;;;4.80;3.08;;;;;;;;;;5053296;28;20266;-64
2024/02/12 05:57:14;;;;;;;4.70;3.25;;;;;;;;;;5044486;28;20237;-64
2024/02/12 05:59:42;;;;;;;3.67;2.97;;;;;;;;;;5033063;28;20236;-64
2024/02/12 06:02:11;;;;;;;3.55;3.00;;;;;;;;;;5043021;28;20648;-64
2024/02/12 06:04:40;;;;;;;6.88;2.92;;;;;;;;;;5046138;28;20216;-65
2024/02/12 06:07:08;;;;;;;3.70;3.00;;;;;;;;;;5031102;28;20209;-64
2024/02/12 06:09:37;;;;;;;4.45;3.00;;;;;;;;;;5033227;28;20205;-64
2024/02/12 06:12:07;;;;;;;5.32;3.90;;;;;;;;;;5037024;28;20200;-65
2024/02/12 06:14:35;;;;;;;5.95;4.30;;;;;;;;;;5047037;28;20185;-65
2024/02/12 06:17:04;;;;;;;5.10;3.58;;;;;;;;;;5051181;28;20906;-64
2024/02/12 06:19:32;;;;;;;7.20;3.90;;;;;;;;;;5034763;28;20224;-64
2024/02/12 06:22:01;;;;;;;6.05;4.00;;;;;;;;;;5032260;28;20239;-64
2024/02/12 06:24:30;;;;;;;4.40;4.00;;;;;;;;;;5037819;28;20575;-64
2024/02/12 06:26:58;;;;;;;5.93;4.25;;;;;;;;;;5052731;28;20306;-64
2024/02/12 06:29:26;;;;;;;4.60;4.20;;;;;;;;;;5049922;28;20211;-65
2024/02/12 06:31:54;;;;;;;6.57;5.15;;;;;;;;;;5044266;28;20234;-65
2024/02/12 06:34:23;;;;;;;6.00;4.25;;;;;;;;;;5036325;28;20215;-64
2024/02/12 06:36:51;;;;;;;5.05;4.20;;;;;;;;;;5036615;28;20207;-64
2024/02/12 06:39:21;;;;;;;6.85;4.88;;;;;;;;;;5030543;28;20225;-66
2024/02/12 06:41:49;;;;;;;5.43;4.90;;;;;;;;;;5033424;28;20216;-65
2024/02/12 06:44:19;;;;;;;5.35;4.40;;;;;;;;;;5036731;28;20579;-64
2024/02/12 06:46:47;;;;;;;7.22;4.35;;;;;;;;;;5050717;28;20201;-64
2024/02/12 06:49:17;;;;;;;8.20;5.05;;;;;;;;;;5034369;28;20201;-65
2024/02/12 06:51:47;;;;;;;10.55;5.13;;;;;;;;;;5032453;28;20209;-65
2024/02/12 06:54:15;;;;;;;7.22;4.72;;;;;;;;;;5033300;28;20184;-65
2024/02/12 06:56:45;;;;;;;5.50;4.95;;;;;;;;;;5049039;28;20289;-66
2024/02/12 06:59:13;;;;;;;7.70;5.90;;;;;;;;;;5031415;28;20223;-66
2024/02/12 07:01:42;;;;;;;7.30;5.93;;;;;;;;;;5039969;28;20209;-65
2024/02/12 07:04:10;;;;;;;5.15;4.60;;;;;;;;;;5045310;28;20207;-66
2024/02/12 07:06:39;;;;;;;10.23;7.03;;;;;;;;;;5051821;28;20208;-67
2024/02/12 07:09:08;;;;;;;8.60;6.75;;;;;;;;;;5050344;28;20201;-66
2024/02/12 07:11:37;;;;;;;9.30;5.95;;;;;;;;;;5045326;28;20204;-66
2024/02/12 07:14:07;;;;;;;9.90;7.63;;;;;;;;;;5036064;28;20197;-66
2024/02/12 07:16:35;;;;;;;7.60;6.82;;;;;;;;;;5042303;28;20204;-66
2024/02/12 07:19:04;;;;;;;9.43;6.68;;;;;;;;;;5032487;28;20221;-65
2024/02/12 07:21:32;;;;;;;13.70;5.40;;;;;;;;;;5031125;28;20233;-65
2024/02/12 07:24:00;;;;;;;8.75;7.22;;;;;;;;;;5037531;28;20565;-65
2024/02/12 07:26:28;;;;;;;10.43;7.80;;;;;;;;;;5051434;28;20200;-67
2024/02/12 07:28:57;;;;;;;7.18;6.55;;;;;;;;;;5051971;28;20209;-66
2024/02/12 07:31:26;;;;;;;9.40;6.53;;;;;;;;;;5049069;28;20205;-67
2024/02/12 07:33:55;;;;;;;6.80;5.93;;;;;;;;;;5049623;28;20702;-66
2024/02/12 07:36:23;;;;;;;10.23;5.50;;;;;;;;;;5049356;28;20666;-65
2024/02/12 07:38:51;;;;;;;7.20;5.90;;;;;;;;;;5050634;28;20211;-66
2024/02/12 07:41:19;;;;;;;9.15;6.53;;;;;;;;;;5044496;28;20213;-65
2024/02/12 07:43:47;;;;;;;5.40;4.82;;;;;;;;;;5050121;28;20226;-65
2024/02/12 07:46:15;;;;;;;5.93;4.15;;;;;;;;;;5050689;28;20696;-65
2024/02/12 07:48:45;;;;;;;9.68;5.30;;;;;;;;;;5042185;28;20200;-66
2024/02/12 07:51:15;;;;;;;7.13;4.82;;;;;;;;;;5048772;28;20196;-66
2024/02/12 07:53:44;;;;;;;5.55;5.05;;;;;;;;;;5044018;28;20648;-65
2024/02/12 07:56:14;;;;;;;5.78;4.53;;;;;;;;;;5045432;28;20204;-66
2024/02/12 07:58:42;;;;;;;7.32;5.30;;;;;;;;;;5047779;28;20212;-66
2024/02/12 08:01:10;;;;;;;7.78;5.22;;;;;;;;;;5042542;28;20220;-66
2024/02/12 08:03:38;;;;;;;7.47;5.18;;;;;;;;;;5047950;28;20218;-66
2024/02/12 08:06:09;;;;;;;7.90;4.72;;;;;;;;;;5043384;28;20231;-66
2024/02/12 08:08:37;;;;;;;8.15;5.40;;;;;;;;;;5047464;28;20412;-66
2024/02/12 08:11:07;;;;;;;14.68;5.63;;;;;;;;;;5046809;28;20222;-66
2024/02/12 08:13:35;;;;;;;4.80;4.22;;;;;;;;;;5044003;28;20210;-65
2024/02/12 08:16:05;;;;;;;5.07;4.00;;;;;;;;;;5039847;28;20203;-66
2024/02/12 08:18:43;;;;;;;6.30;4.90;;;;;;;;;;5031759;28;20197;-65
2024/02/12 08:21:13;;;;;;;4.70;4.30;;;;;;;;;;5034222;28;20235;-66
2024/02/12 08:23:41;;;;;;;7.00;4.43;;;;;;;;;;5044008;28;20197;-65
2024/02/12 08:26:10;;;;;;;11.15;4.78;;;;;;;;;;5048967;28;20206;-65
2024/02/12 08:28:41;;;;;;;7.40;5.00;;;;;;;;;;5043265;28;20202;-65
2024/02/12 08:31:11;;;;;;;6.72;5.00;;;;;;;;;;5040100;28;20188;-66
2024/02/12 08:33:39;;;;;;;5.65;5.13;;;;;;;;;;5030382;28;20780;-65
2024/02/12 08:36:07;;;;;;;5.75;5.25;;;;;;;;;;5048110;28;20207;-65
2024/02/12 08:38:37;;;;;;;9.93;4.85;;;;;;;;;;5040206;28;20207;-65
2024/02/12 08:41:05;;;;;;;5.85;4.90;;;;;;;;;;5037190;28;20219;-66
2024/02/12 08:43:33;;;;;;;6.85;4.93;;;;;;;;;;5042794;28;20203;-66
2024/02/12 08:46:02;;;;;;;15.27;4.32;;;;;;;;;;5044480;28;20211;-65
2024/02/12 08:48:32;;;;;;;8.15;4.40;;;;;;;;;;5039961;28;20242;-65
2024/02/12 08:51:00;;;;;;;4.55;3.95;;;;;;;;;;5043536;28;20807;-66
2024/02/12 08:53:29;;;;;;;5.30;4.80;;;;;;;;;;5038865;28;20208;-66
2024/02/12 08:55:59;;;;;;;4.55;4.15;;;;;;;;;;5043075;28;20204;-65
2024/02/12 08:58:27;;;;;;;13.35;4.22;;;;;;;;;;5041875;28;20223;-66
2024/02/12 09:00:56;;;;;;;6.60;4.00;;;;;;;;;;5042716;28;20582;-67
2024/02/12 09:03:45;;;;;;;4.90;4.45;;;;;;;;;;5039220;28;20205;-65
2024/02/12 09:06:14;;;;;;;4.45;4.03;;;;;;;;;;5051473;28;20201;-66
2024/02/12 09:08:42;;;;;;;6.00;3.75;;;;;;;;;;5045333;28;20231;-65
2024/02/12 09:11:12;;;;;;;4.97;3.30;;;;;;;;;;5045479;28;20197;-66
2024/02/12 09:13:42;;;;;;;4.07;3.70;;;;;;;;;;5045543;28;20211;-66
2024/02/12 09:16:10;;;;;;;6.63;3.90;;;;;;;;;;5045295;28;20205;-67
2024/02/12 09:18:39;;;;;;;5.38;3.55;;;;;;;;;;5044905;28;20209;-65
2024/02/12 09:21:07;;;;;;;3.70;3.20;;;;;;;;;;5043475;28;20217;-65
2024/02/12 09:23:35;;;;;;;3.30;3.00;;;;;;;;;;5047680;28;20197;-65
2024/02/12 09:26:05;;;;;;;4.07;3.10;;;;;;;;;;5045652;28;20206;-66
2024/02/12 09:28:35;;;;;;;3.97;3.63;;;;;;;;;;5043035;28;20631;-65
2024/02/12 09:31:03;;;;;;;3.00;2.80;;;;;;;;;;5043357;28;20195;-65
2024/02/12 09:33:32;;;;;;;3.42;3.13;;;;;;;;;;5046408;28;20192;-65
2024/02/12 09:36:00;;;;;;;3.55;3.33;;;;;;;;;;5047952;28;20216;-67
2024/02/12 09:38:28;;;;;;;3.90;3.40;;;;;;;;;;5050170;28;20207;-68
2024/02/12 09:40:57;;;;;;;11.03;2.97;;;;;;;;;;5050860;28;20872;-67
2024/02/12 09:43:26;;;;;;;3.87;3.27;;;;;;;;;;5049542;28;20734;-66
2024/02/12 09:45:56;;;;;;;3.33;3.03;;;;;;;;;;5058793;28;21214;-66
2024/02/12 09:48:25;;;;;;;3.17;2.97;;;;;;;;;;5057038;28;20696;-67
2024/02/12 09:50:53;;;;;;;3.87;3.07;;;;;;;;;;5058218;28;20280;-65
2024/02/12 09:53:23;;;;;;;4.57;3.58;;;;;;;;;;5055600;28;20627;-67
2024/02/12 09:55:51;;;;;;;7.10;4.55;;;;;;;;;;5053575;28;20207;-66
2024/02/12 09:58:20;;;;;;;3.88;3.38;;;;;;;;;;5057718;28;20217;-65
2024/02/12 10:00:48;;;;;;;6.43;3.47;;;;;;;;;;5054484;28;20238;-64
2024/02/12 10:03:40;;;;;;;3.25;2.90;;;;;;;;;;5055131;28;20252;-66
2024/02/12 10:06:28;;;;;;;4.65;3.60;;;;;;;;;;5050148;28;20272;-69
2024/02/12 10:09:17;;;;;;;7.20;3.60;;;;;;;;;;5043913;28;20266;-65
2024/02/12 10:11:47;;;;;;;6.10;3.78;;;;;;;;;;5044000;28;20197;-66
2024/02/12 10:14:35;;;;;;;4.88;2.75;;;;;;;;;;5047605;28;20192;-65
2024/02/12 10:17:23;;;;;;;4.05;3.15;;;;;;;;;;5046289;28;20272;-65
2024/02/12 10:20:13;;;;;;;3.88;3.10;;;;;;;;;;5047428;28;20280;-65
2024/02/12 10:23:01;;;;;;;3.22;2.80;;;;;;;;;;5056502;28;20311;-66
2024/02/12 10:25:51;;;;;;;7.95;4.93;;;;;;;;;;5049149;28;20209;-67
2024/02/12 10:28:39;;;;;;;4.57;3.40;;;;;;;;;;5044185;28;20209;-65
2024/02/12 10:31:28;;;;;;;3.70;3.40;;;;;;;;;;5049434;28;20357;-70
2024/02/12 10:34:17;;;;;;;3.83;3.05;;;;;;;;;;5052318;28;20226;-65
2024/02/12 10:37:06;;;;;;;4.82;3.15;;;;;;;;;;5046890;28;20280;-66
2024/02/12 10:39:55;;;;;;;2.85;2.65;;;;;;;;;;5051656;28;20419;-66
2024/02/12 10:42:48;;;;;;;4.05;3.08;;;;;;;;;;5050519;28;20196;-66
2024/02/12 10:45:36;;;;;;;4.03;3.10;;;;;;;;;;5048896;28;20203;-65
2024/02/12 10:48:24;;;;;;;4.45;3.70;;;;;;;;;;5050668;28;20196;-64
2024/02/12 10:51:12;;;;;;;6.18;2.55;;;;;;;;;;5040069;28;20272;-65
2024/02/12 10:54:02;;;;;;;2.90;2.70;;;;;;;;;;5056993;28;20285;-67
2024/02/12 10:56:38;;;;;;;3.75;2.40;;;;;;;;;;5052832;28;20304;-65
2024/02/12 10:59:07;;;;;;;3.78;2.50;;;;;;;;;;5051500;28;20200;-66
2024/02/12 11:01:35;;;;;;;3.20;2.90;;;;;;;;;;5049568;28;20379;-65
2024/02/12 11:04:05;;;;;;;4.85;3.05;;;;;;;;;;5046736;28;20215;-66
2024/02/12 11:06:41;;;;;;;19.90;11.02;;;;;;;;;;5054634;28;20204;-66
2024/02/12 11:09:11;;;;;;;6.13;3.72;;;;;;;;;;5056309;28;20244;-65
2024/02/12 11:11:46;;;;;;;3.88;3.58;;;;;;;;;;5058995;28;20292;-67
2024/02/12 11:14:15;;;;;;;3.22;2.92;;;;;;;;;;5062220;28;20271;-66
2024/02/12 11:16:44;;;;;;;8.05;4.22;;;;;;;;;;5063017;28;20256;-66
2024/02/12 11:19:16;;;;;;;3.00;2.80;;;;;;;;;;5063994;28;20272;-65
2024/02/12 11:21:44;;;;;;;3.17;3.00;;;;;;;;;;5055537;28;20308;-65
2024/02/12 11:24:14;;;;;;;4.10;3.40;;;;;;;;;;5053807;28;20423;-65
2024/02/12 11:26:43;;;;;;;3.03;2.70;;;;;;;;;;5054453;28;20256;-68
2024/02/12 11:29:11;;;;;;;2.60;2.50;;;;;;;;;;5050998;28;20261;-66
2024/02/12 11:31:41;;;;;;;7.93;5.05;;;;;;;;;;5062242;28;20193;-65
2024/02/12 11:34:13;;;;;;;3.28;2.75;;;;;;;;;;5065088;28;20280;-67
2024/02/12 11:36:41;;;;;;;6.90;2.63;;;;;;;;;;5050133;28;20678;-67
2024/02/12 11:39:09;;;;;;;4.00;2.53;;;;;;;;;;5044832;28;20261;-66
2024/02/12 11:41:40;;;;;;;2.33;2.20;;;;;;;;;;5043465;28;20344;-65
2024/02/12 11:44:08;;;;;;;2.72;2.33;;;;;;;;;;5044926;28;20258;-65
2024/02/12 11:46:38;;;;;;;2.53;2.38;;;;;;;;;;5060685;28;20277;-66
2024/02/12 11:49:06;;;;;;;4.78;2.60;;;;;;;;;;5054999;28;20229;-66
2024/02/12 11:51:35;;;;;;;2.75;2.47;;;;;;;;;;5059460;28;20248;-65
2024/02/12 11:54:03;;;;;;;2.92;2.72;;;;;;;;;;5064347;28;20359;-66
2024/02/12 11:56:32;;;;;;;3.30;3.10;;;;;;;;;;5063707;28;20663;-64
2024/02/12 11:59:04;;;;;;;3.95;3.22;;;;;;;;;;5057817;28;20701;-67
2024/02/12 12:01:32;;;;;;;5.90;3.50;;;;;;;;;;5058467;28;20268;-66
2024/02/12 12:04:01;;;;;;;3.35;3.10;;;;;;;;;;5055847;28;20335;-67
2024/02/12 12:06:31;;;;;;;3.20;3.00;;;;;;;;;;5059837;28;20220;-67
2024/02/12 12:08:59;;;;;;;4.40;4.00;;;;;;;;;;5048730;28;20682;-66
2024/02/12 12:11:28;;;;;;;4.60;4.10;;;;;;;;;;5060158;28;20703;-70
2024/02/12 12:13:59;;;;;;;4.43;4.00;;;;;;;;;;5063371;28;20647;-66
2024/02/12 12:16:30;;;;;;;4.18;3.92;;;;;;;;;;5059691;28;20283;-66
2024/02/12 12:19:01;;;;;;;4.33;4.00;;;;;;;;;;5055980;28;20280;-69
2024/02/12 12:21:31;;;;;;;4.27;4.07;;;;;;;;;;5052531;28;20758;-68
2024/02/12 12:24:00;;;;;;;4.63;4.33;;;;;;;;;;5054830;28;20680;-67
2024/02/12 12:26:29;;;;;;;4.87;3.83;;;;;;;;;;5059032;28;21444;-69
2024/02/12 12:28:57;;;;;;;6.88;3.95;;;;;;;;;;5064796;28;20658;-67
2024/02/12 12:31:25;;;;;;;4.20;4.00;;;;;;;;;;5054488;28;20767;-66
2024/02/12 12:33:55;;;;;;;4.20;4.00;;;;;;;;;;5060196;28;20690;-66
2024/02/12 12:36:23;;;;;;;4.10;3.90;;;;;;;;;;5054773;28;20251;-67
2024/02/12 12:38:51;;;;;;;5.30;4.82;;;;;;;;;;5051344;28;21106;-66
2024/02/12 12:41:20;;;;;;;4.43;4.13;;;;;;;;;;5062730;28;20256;-66
2024/02/12 12:43:49;;;;;;;5.30;4.80;;;;;;;;;;5063168;28;20650;-64
2024/02/12 12:46:18;;;;;;;5.03;4.73;;;;;;;;;;5059234;28;20706;-66
2024/02/12 12:48:59;;;;;;;8.77;6.60;;;;;;;;;;5054343;28;20601;-66
2024/02/12 12:51:27;;;;;;;10.37;7.33;;;;;;;;;;5063544;28;20648;-69
2024/02/12 12:53:55;;;;;;;9.43;8.80;;;;;;;;;;5059879;28;20703;-67
2024/02/12 12:56:23;;;;;;;10.97;9.87;;;;;;;;;;5059767;28;20726;-65
2024/02/12 12:58:51;;;;;;;8.57;7.77;;;;;;;;;;5057153;28;20730;-68
2024/02/12 13:01:20;;;;;;;6.90;6.23;;;;;;;;;;5060552;28;20667;-67
2024/02/12 13:03:54;;;;;;;6.43;5.93;;;;;;;;;;5062571;28;20647;-67
2024/02/12 13:06:23;;;;;;;5.80;5.60;;;;;;;;;;5060844;28;20686;-69
2024/02/12 13:08:51;;;;;;;8.33;7.23;;;;;;;;;;5062619;28;20679;-68
2024/02/12 13:11:20;;;;;;;8.50;7.70;;;;;;;;;;5063370;28;20742;-66
2024/02/12 13:13:52;;;;;;;6.27;5.63;;;;;;;;;;5061751;28;20710;-68
2024/02/12 13:16:21;;;;;;;6.30;5.80;;;;;;;;;;5062525;28;20675;-65
2024/02/12 13:18:49;;;;;;;5.57;5.13;;;;;;;;;;5061849;28;20697;-66
2024/02/12 13:21:17;;;;;;;5.23;4.93;;;;;;;;;;5062434;28;20822;-65
2024/02/12 13:23:47;;;;;;;5.17;4.87;;;;;;;;;;5062327;28;20749;-65
2024/02/12 13:26:16;;;;;;;5.10;4.80;;;;;;;;;;5060939;28;20702;-66
2024/02/12 13:28:45;;;;;;;4.50;4.20;;;;;;;;;;5060931;28;20701;-67
2024/02/12 13:31:13;;;;;;;6.87;4.87;;;;;;;;;;5041783;28;20900;-65
2024/02/12 13:33:41;;;;;;;5.70;4.30;;;;;;;;;;5040116;28;20664;-65
2024/02/12 13:36:10;;;;;;;4.57;4.17;;;;;;;;;;5051067;28;20768;-65
2024/02/12 13:38:39;;;;;;;10.30;4.33;;;;;;;;;;5062049;28;20702;-68
2024/02/12 13:41:10;;;;;;;4.80;4.50;;;;;;;;;;5062029;28;20674;-65
2024/02/12 13:43:38;;;;;;;8.00;4.23;;;;;;;;;;5061537;28;20710;-65
2024/02/12 13:46:07;;;;;;;3.85;3.55;;;;;;;;;;5062203;28;20676;-66
2024/02/12 13:48:35;;;;;;;4.30;4.00;;;;;;;;;;5063039;28;20269;-65
2024/02/12 13:51:03;;;;;;;4.03;3.73;;;;;;;;;;5067417;28;20235;-66
2024/02/12 13:53:35;;;;;;;4.50;4.10;;;;;;;;;;5067394;28;20650;-65
2024/02/12 13:56:03;;;;;;;5.63;4.03;;;;;;;;;;5064562;28;20667;-65
2024/02/12 13:58:34;;;;;;;7.40;4.90;;;;;;;;;;5062231;28;20628;-65
2024/02/12 14:01:02;;;;;;;5.30;4.90;;;;;;;;;;5047549;28;20690;-66
2024/02/12 14:03:32;;;;;;;5.50;4.00;;;;;;;;;;5065367;28;20714;-65
2024/02/12 14:06:00;;;;;;;5.60;5.10;;;;;;;;;;5063980;28;20695;-66
2024/02/12 14:08:28;;;;;;;5.90;5.40;;;;;;;;;;5066755;28;20627;-67
2024/02/12 14:10:56;;;;;;;7.53;5.40;;;;;;;;;;5066937;28;20638;-67
2024/02/12 14:13:25;;;;;;;5.67;5.27;;;;;;;;;;5066034;28;21047;-67
2024/02/12 14:15:54;;;;;;;5.57;5.17;;;;;;;;;;5066411;28;20634;-66
2024/02/12 14:18:22;;;;;;;7.07;5.33;;;;;;;;;;5069393;28;20642;-66
2024/02/12 14:20:53;;;;;;;5.68;5.20;;;;;;;;;;5067670;28;20638;-64
2024/02/12 14:23:21;;;;;;;6.30;5.70;;;;;;;;;;5067966;28;20264;-65
2024/02/12 14:25:50;;;;;;;8.20;5.63;;;;;;;;;;5067623;28;20286;-65
2024/02/12 14:28:18;;;;;;;6.80;6.35;;;;;;;;;;5068480;28;21021;-64
2024/02/12 14:30:48;;;;;;;5.60;5.25;;;;;;;;;;5068285;28;20232;-64
2024/02/12 14:33:21;;;;;;;6.30;5.60;;;;;;;;;;5067048;28;20236;-67
2024/02/12 14:35:49;;;;;;;6.07;5.57;;;;;;;;;;5065558;28;20678;-66
2024/02/12 14:38:17;;;;;;;6.50;5.90;;;;;;;;;;5065894;28;20279;-64
2024/02/12 14:40:46;;;;;;;6.13;5.83;;;;;;;;;;5065895;28;20650;-64
2024/02/12 14:43:15;;;;;;;7.20;6.67;;;;;;;;;;5066451;28;20711;-64
2024/02/12 14:45:43;;;;;;;7.53;7.13;;;;;;;;;;5067247;28;20693;-65
2024/02/12 14:48:33;;;;;;;16.73;7.80;;;;;;;;;;5066762;28;20650;-64
2024/02/12 14:51:01;;;;;;;8.53;8.03;;;;;;;;;;5066307;28;20635;-66
2024/02/12 14:53:31;;;;;;;8.70;8.10;;;;;;;;;;5065786;28;20691;-67
2024/02/12 14:56:00;;;;;;;9.07;8.57;;;;;;;;;;5065609;28;20652;-65
2024/02/12 14:58:28;;;;;;;9.80;8.93;;;;;;;;;;5054935;28;20692;-64
2024/02/12 15:00:56;;;;;;;10.30;9.70;;;;;;;;;;5043093;28;20652;-65
2024/02/12 15:03:25;;;;;;;11.10;10.40;;;;;;;;;;5054645;28;20749;-66
2024/02/12 15:05:55;;;;;;;10.30;9.80;;;;;;;;;;5063242;28;20686;-65
2024/02/12 15:08:23;;;;;;;11.43;10.83;;;;;;;;;;5063826;28;20710;-65
2024/02/12 15:10:52;;;;;;;9.70;9.20;;;;;;;;;;5064430;28;20593;-67
2024/02/12 15:13:20;;;;;;;10.47;9.77;;;;;;;;;;5063805;28;20718;-66
2024/02/12 15:15:48;;;;;;;10.80;10.10;;;;;;;;;;5064140;28;21726;-67